sensor_id;sensor_type;location;lat;lon;timestamp;pressure;altitude;pressure_sealevel;temperature;humidity
69971;BME280;57301;50.328;8.542;2023-04-20T00:00:23;98693.41;;;0.68;86.80
69971;BME280;57301;50.328;8.542;2023-04-20T00:02:53;98690.09;;;0.80;86.35
69971;BME280;57301;50.328;8.542;2023-04-20T00:05:23;98693.28;;;0.85;86.14
69971;BME280;57301;50.328;8.542;2023-04-20T00:07:49;98684.38;;;0.88;85.89
69971;BME280;57301;50.328;8.542;2023-04-20T00:10:16;98677.09;;;0.93;85.67
69971;BME280;57301;50.328;8.542;2023-04-20T00:12:42;98680.94;;;0.87;85.68
69971;BME280;57301;50.328;8.542;2023-04-20T00:15:09;98674.28;;;0.96;85.13
69971;BME280;57301;50.328;8.542;2023-04-20T00:17:36;98662.00;;;0.96;84.85
69971;BME280;57301;50.328;8.542;2023-04-20T00:20:05;98656.94;;;0.93;85.08
69971;BME280;57301;50.328;8.542;2023-04-20T00:22:33;98650.84;;;0.93;85.48
69971;BME280;57301;50.328;8.542;2023-04-20T00:25:01;98652.13;;;0.86;84.92
69971;BME280;57301;50.328;8.542;2023-04-20T00:27:27;98644.44;;;0.83;85.74
69971;BME280;57301;50.328;8.542;2023-04-20T00:29:54;98646.31;;;0.80;85.28
69971;BME280;57301;50.328;8.542;2023-04-20T00:32:20;98634.63;;;0.86;85.04
69971;BME280;57301;50.328;8.542;2023-04-20T00:35:16;98639.28;;;0.81;84.67
69971;BME280;57301;50.328;8.542;2023-04-20T00:37:43;98628.78;;;0.81;85.46
69971;BME280;57301;50.328;8.542;2023-04-20T00:40:09;98625.09;;;0.69;85.58
69971;BME280;57301;50.328;8.542;2023-04-20T00:42:36;98622.13;;;0.60;86.26
69971;BME280;57301;50.328;8.542;2023-04-20T00:45:06;98628.34;;;0.43;87.33
69971;BME280;57301;50.328;8.542;2023-04-20T00:47:32;98621.66;;;0.53;86.85
69971;BME280;57301;50.328;8.542;2023-04-20T00:49:59;98620.47;;;0.43;87.52
69971;BME280;57301;50.328;8.542;2023-04-20T00:52:26;98613.19;;;0.48;88.04
69971;BME280;57301;50.328;8.542;2023-04-20T00:54:52;98613.78;;;0.53;87.56
69971;BME280;57301;50.328;8.542;2023-04-20T00:57:19;98606.63;;;0.71;87.41
69971;BME280;57301;50.328;8.542;2023-04-20T00:59:49;98600.63;;;0.69;86.51
69971;BME280;57301;50.328;8.542;2023-04-20T01:02:18;98600.91;;;0.78;86.22
69971;BME280;57301;50.328;8.542;2023-04-20T01:04:46;98603.25;;;0.69;87.08
69971;BME280;57301;50.328;8.542;2023-04-20T01:07:12;98596.03;;;0.72;86.90
69971;BME280;57301;50.328;8.542;2023-04-20T01:09:39;98589.44;;;0.65;87.09
69971;BME280;57301;50.328;8.542;2023-04-20T01:12:06;98581.13;;;0.73;86.84
69971;BME280;57301;50.328;8.542;2023-04-20T01:14:32;98580.13;;;0.75;87.14
69971;BME280;57301;50.328;8.542;2023-04-20T01:16:59;98581.44;;;0.83;87.44
69971;BME280;57301;50.328;8.542;2023-04-20T01:19:25;98580.41;;;0.85;87.63
69971;BME280;57301;50.328;8.542;2023-04-20T01:21:52;98583.50;;;0.92;87.29
69971;BME280;57301;50.328;8.542;2023-04-20T01:24:18;98579.97;;;0.93;86.09
69971;BME280;57301;50.328;8.542;2023-04-20T01:26:44;98568.25;;;1.13;85.57
69971;BME280;57301;50.328;8.542;2023-04-20T01:29:11;98569.47;;;1.21;85.35
69971;BME280;57301;50.328;8.542;2023-04-20T01:31:37;98571.94;;;1.24;84.93
69971;BME280;57301;50.328;8.542;2023-04-20T01:34:04;98569.56;;;1.20;85.63
69971;BME280;57301;50.328;8.542;2023-04-20T01:36:30;98568.00;;;1.17;86.44
69971;BME280;57301;50.328;8.542;2023-04-20T01:38:58;98566.94;;;1.20;85.98
69971;BME280;57301;50.328;8.542;2023-04-20T01:41:25;98563.84;;;0.99;86.81
69971;BME280;57301;50.328;8.542;2023-04-20T01:43:52;98575.47;;;1.09;86.39
69971;BME280;57301;50.328;8.542;2023-04-20T01:46:18;98561.59;;;1.21;86.01
69971;BME280;57301;50.328;8.542;2023-04-20T01:48:45;98562.44;;;1.22;86.04
69971;BME280;57301;50.328;8.542;2023-04-20T01:51:11;98560.09;;;1.31;84.84
69971;BME280;57301;50.328;8.542;2023-04-20T01:53:38;98561.03;;;1.45;84.48
69971;BME280;57301;50.328;8.542;2023-04-20T01:56:04;98559.69;;;1.52;84.11
69971;BME280;57301;50.328;8.542;2023-04-20T01:58:31;98553.84;;;1.75;83.08
69971;BME280;57301;50.328;8.542;2023-04-20T02:01:00;98554.81;;;2.01;82.35
69971;BME280;57301;50.328;8.542;2023-04-20T02:03:27;98548.78;;;2.26;82.20
69971;BME280;57301;50.328;8.542;2023-04-20T02:05:54;98551.28;;;2.42;82.49
69971;BME280;57301;50.328;8.542;2023-04-20T02:08:21;98541.84;;;2.65;81.70
69971;BME280;57301;50.328;8.542;2023-04-20T02:10:47;98544.81;;;2.73;82.22
69971;BME280;57301;50.328;8.542;2023-04-20T02:13:14;98550.38;;;2.81;82.64
69971;BME280;57301;50.328;8.542;2023-04-20T02:15:40;98539.66;;;2.97;82.65
69971;BME280;57301;50.328;8.542;2023-04-20T02:18:07;98538.09;;;3.07;82.56
69971;BME280;57301;50.328;8.542;2023-04-20T02:20:34;98531.03;;;3.20;82.46
69971;BME280;57301;50.328;8.542;2023-04-20T02:23:00;98530.16;;;3.33;82.66
69971;BME280;57301;50.328;8.542;2023-04-20T02:25:27;98525.63;;;3.35;82.80
69971;BME280;57301;50.328;8.542;2023-04-20T02:27:53;98527.63;;;3.44;82.90
69971;BME280;57301;50.328;8.542;2023-04-20T02:30:20;98528.13;;;3.49;82.88
69971;BME280;57301;50.328;8.542;2023-04-20T02:32:46;98520.72;;;3.54;82.92
69971;BME280;57301;50.328;8.542;2023-04-20T02:35:13;98521.97;;;3.61;82.58
69971;BME280;57301;50.328;8.542;2023-04-20T02:37:39;98519.34;;;3.61;83.26
69971;BME280;57301;50.328;8.542;2023-04-20T02:40:06;98523.78;;;3.61;84.32
69971;BME280;57301;50.328;8.542;2023-04-20T02:42:33;98526.41;;;3.61;83.47
69971;BME280;57301;50.328;8.542;2023-04-20T02:45:00;98521.78;;;3.64;84.54
69971;BME280;57301;50.328;8.542;2023-04-20T02:47:27;98523.25;;;3.56;84.90
69971;BME280;57301;50.328;8.542;2023-04-20T02:49:53;98523.59;;;3.51;85.76
69971;BME280;57301;50.328;8.542;2023-04-20T02:52:20;98519.88;;;3.54;86.32
69971;BME280;57301;50.328;8.542;2023-04-20T02:54:46;98515.69;;;3.51;86.60
69971;BME280;57301;50.328;8.542;2023-04-20T02:57:13;98517.47;;;3.50;87.21
69971;BME280;57301;50.328;8.542;2023-04-20T02:59:39;98502.94;;;3.45;88.11
69971;BME280;57301;50.328;8.542;2023-04-20T03:02:06;98518.41;;;3.49;88.67
69971;BME280;57301;50.328;8.542;2023-04-20T03:04:32;98518.75;;;3.45;88.67
69971;BME280;57301;50.328;8.542;2023-04-20T03:06:59;98505.56;;;3.45;89.35
69971;BME280;57301;50.328;8.542;2023-04-20T03:09:26;98511.88;;;3.42;90.43
69971;BME280;57301;50.328;8.542;2023-04-20T03:11:53;98509.16;;;3.31;90.55
69971;BME280;57301;50.328;8.542;2023-04-20T03:14:19;98505.91;;;3.40;90.64
69971;BME280;57301;50.328;8.542;2023-04-20T03:16:46;98505.38;;;3.35;92.07
69971;BME280;57301;50.328;8.542;2023-04-20T03:19:12;98505.25;;;3.37;91.20
69971;BME280;57301;50.328;8.542;2023-04-20T03:21:39;98505.59;;;3.32;92.22
69971;BME280;57301;50.328;8.542;2023-04-20T03:24:05;98503.47;;;3.24;93.44
69971;BME280;57301;50.328;8.542;2023-04-20T03:26:32;98498.84;;;3.28;92.93
69971;BME280;57301;50.328;8.542;2023-04-20T03:28:58;98496.13;;;3.17;93.44
69971;BME280;57301;50.328;8.542;2023-04-20T03:31:25;98504.44;;;3.23;93.39
69971;BME280;57301;50.328;8.542;2023-04-20T03:33:52;98493.91;;;3.23;94.23
69971;BME280;57301;50.328;8.542;2023-04-20T03:36:18;98496.78;;;3.20;94.45
69971;BME280;57301;50.328;8.542;2023-04-20T03:38:45;98495.16;;;3.18;93.86
69971;BME280;57301;50.328;8.542;2023-04-20T03:41:11;98501.19;;;3.20;94.63
69971;BME280;57301;50.328;8.542;2023-04-20T03:43:38;98494.13;;;3.20;94.45
69971;BME280;57301;50.328;8.542;2023-04-20T03:46:04;98495.16;;;3.18;95.33
69971;BME280;57301;50.328;8.542;2023-04-20T03:48:31;98478.63;;;3.16;95.55
69971;BME280;57301;50.328;8.542;2023-04-20T03:50:58;98477.50;;;3.20;95.32
69971;BME280;57301;50.328;8.542;2023-04-20T03:53:24;98487.25;;;3.18;95.55
69971;BME280;57301;50.328;8.542;2023-04-20T03:55:51;98476.31;;;3.11;95.79
69971;BME280;57301;50.328;8.542;2023-04-20T03:58:18;98479.16;;;3.21;95.49
69971;BME280;57301;50.328;8.542;2023-04-20T04:00:44;98477.59;;;3.06;95.70
69971;BME280;57301;50.328;8.542;2023-04-20T04:03:11;98481.41;;;3.02;96.13
69971;BME280;57301;50.328;8.542;2023-04-20T04:05:39;98474.53;;;2.99;96.42
69971;BME280;57301;50.328;8.542;2023-04-20T04:08:06;98480.34;;;3.04;96.98
69971;BME280;57301;50.328;8.542;2023-04-20T04:10:33;98477.41;;;2.96;96.79
69971;BME280;57301;50.328;8.542;2023-04-20T04:12:59;98477.06;;;2.88;96.68
69971;BME280;57301;50.328;8.542;2023-04-20T04:15:26;98476.88;;;2.91;96.11
69971;BME280;57301;50.328;8.542;2023-04-20T04:17:52;98478.25;;;2.96;96.14
69971;BME280;57301;50.328;8.542;2023-04-20T04:20:19;98477.28;;;2.97;96.07
69971;BME280;57301;50.328;8.542;2023-04-20T04:22:46;98477.81;;;3.03;96.65
69971;BME280;57301;50.328;8.542;2023-04-20T04:25:12;98476.88;;;2.91;95.90
69971;BME280;57301;50.328;8.542;2023-04-20T04:27:41;98474.44;;;2.88;95.80
69971;BME280;57301;50.328;8.542;2023-04-20T04:30:08;98479.81;;;2.86;96.90
69971;BME280;57301;50.328;8.542;2023-04-20T04:32:36;98473.81;;;2.84;96.88
69971;BME280;57301;50.328;8.542;2023-04-20T04:35:02;98477.19;;;2.86;96.71
69971;BME280;57301;50.328;8.542;2023-04-20T04:37:29;98474.56;;;2.86;96.63
69971;BME280;57301;50.328;8.542;2023-04-20T04:39:56;98469.81;;;2.79;97.33
69971;BME280;57301;50.328;8.542;2023-04-20T04:42:23;98475.09;;;2.79;97.24
69971;BME280;57301;50.328;8.542;2023-04-20T04:44:49;98465.28;;;2.81;97.40
69971;BME280;57301;50.328;8.542;2023-04-20T04:47:17;98471.09;;;2.73;97.61
69971;BME280;57301;50.328;8.542;2023-04-20T04:49:48;98464.34;;;2.69;98.18
69971;BME280;57301;50.328;8.542;2023-04-20T04:52:14;98470.66;;;2.79;98.27
69971;BME280;57301;50.328;8.542;2023-04-20T04:54:41;98462.88;;;2.65;98.17
69971;BME280;57301;50.328;8.542;2023-04-20T04:57:07;98466.00;;;2.70;98.53
69971;BME280;57301;50.328;8.542;2023-04-20T04:59:34;98459.91;;;2.69;98.59
69971;BME280;57301;50.328;8.542;2023-04-20T05:02:01;98468.88;;;2.67;98.68
69971;BME280;57301;50.328;8.542;2023-04-20T05:04:27;98466.88;;;2.71;99.19
69971;BME280;57301;50.328;8.542;2023-04-20T05:06:54;98470.34;;;2.71;99.97
69971;BME280;57301;50.328;8.542;2023-04-20T05:09:24;98462.03;;;2.64;99.42
69971;BME280;57301;50.328;8.542;2023-04-20T05:11:53;98474.78;;;2.71;99.14
69971;BME280;57301;50.328;8.542;2023-04-20T05:14:19;98468.97;;;2.65;99.08
69971;BME280;57301;50.328;8.542;2023-04-20T05:16:46;98466.97;;;2.69;99.38
69971;BME280;57301;50.328;8.542;2023-04-20T05:19:12;98472.22;;;2.69;98.88
69971;BME280;57301;50.328;8.542;2023-04-20T05:21:39;98476.34;;;2.73;98.36
69971;BME280;57301;50.328;8.542;2023-04-20T05:24:05;98471.09;;;2.60;99.03
69971;BME280;57301;50.328;8.542;2023-04-20T05:26:32;98476.75;;;2.54;99.52
69971;BME280;57301;50.328;8.542;2023-04-20T05:28:59;98474.97;;;2.67;98.90
69971;BME280;57301;50.328;8.542;2023-04-20T05:31:25;98474.25;;;2.78;99.11
69971;BME280;57301;50.328;8.542;2023-04-20T05:33:52;98469.72;;;2.80;99.32
69971;BME280;57301;50.328;8.542;2023-04-20T05:36:19;98469.59;;;2.94;99.21
69971;BME280;57301;50.328;8.542;2023-04-20T05:38:45;98474.84;;;2.94;98.70
69971;BME280;57301;50.328;8.542;2023-04-20T05:41:12;98467.28;;;2.90;99.33
69971;BME280;57301;50.328;8.542;2023-04-20T05:43:38;98469.81;;;2.91;98.75
69971;BME280;57301;50.328;8.542;2023-04-20T05:46:05;98464.44;;;2.93;99.45
69971;BME280;57301;50.328;8.542;2023-04-20T05:48:31;98465.81;;;2.99;99.72
69971;BME280;57301;50.328;8.542;2023-04-20T05:50:58;98464.31;;;2.94;99.53
69971;BME280;57301;50.328;8.542;2023-04-20T05:53:24;98467.72;;;2.96;100.00
69971;BME280;57301;50.328;8.542;2023-04-20T05:55:51;98468.53;;;2.97;99.14
69971;BME280;57301;50.328;8.542;2023-04-20T05:58:18;98475.19;;;3.03;99.72
69971;BME280;57301;50.328;8.542;2023-04-20T06:00:44;98475.91;;;3.05;99.08
69971;BME280;57301;50.328;8.542;2023-04-20T06:03:11;98474.75;;;3.09;99.32
69971;BME280;57301;50.328;8.542;2023-04-20T06:05:38;98473.81;;;3.10;99.33
69971;BME280;57301;50.328;8.542;2023-04-20T06:08:05;98476.13;;;3.02;99.63
69971;BME280;57301;50.328;8.542;2023-04-20T06:10:31;98474.94;;;3.06;99.29
69971;BME280;57301;50.328;8.542;2023-04-20T06:12:59;98476.63;;;3.07;99.54
69971;BME280;57301;50.328;8.542;2023-04-20T06:15:26;98471.81;;;3.13;99.24
69971;BME280;57301;50.328;8.542;2023-04-20T06:17:52;98469.59;;;3.20;99.50
69971;BME280;57301;50.328;8.542;2023-04-20T06:20:19;98477.28;;;3.10;98.97
69971;BME280;57301;50.328;8.542;2023-04-20T06:22:46;98473.50;;;3.02;98.66
69971;BME280;57301;50.328;8.542;2023-04-20T06:25:13;98477.19;;;2.99;98.08
69971;BME280;57301;50.328;8.542;2023-04-20T06:27:41;98479.69;;;3.01;99.16
69971;BME280;57301;50.328;8.542;2023-04-20T06:30:08;98469.81;;;3.04;99.16
69971;BME280;57301;50.328;8.542;2023-04-20T06:32:35;98467.88;;;3.19;99.24
69971;BME280;57301;50.328;8.542;2023-04-20T06:35:02;98466.75;;;3.10;99.06
69971;BME280;57301;50.328;8.542;2023-04-20T06:37:33;98468.00;;;3.05;98.98
69971;BME280;57301;50.328;8.542;2023-04-20T06:40:00;98472.41;;;3.17;99.12
69971;BME280;57301;50.328;8.542;2023-04-20T06:42:27;98471.88;;;3.24;98.73
69971;BME280;57301;50.328;8.542;2023-04-20T06:44:53;98479.38;;;3.18;98.33
69971;BME280;57301;50.328;8.542;2023-04-20T06:47:21;98478.00;;;3.12;98.75
69971;BME280;57301;50.328;8.542;2023-04-20T06:49:48;98482.44;;;3.12;98.41
69971;BME280;57301;50.328;8.542;2023-04-20T06:52:14;98486.69;;;3.02;98.44
69971;BME280;57301;50.328;8.542;2023-04-20T06:54:41;98485.69;;;3.15;97.75
69971;BME280;57301;50.328;8.542;2023-04-20T06:57:07;98478.53;;;3.17;98.67
69971;BME280;57301;50.328;8.542;2023-04-20T06:59:33;98477.97;;;3.25;98.18
69971;BME280;57301;50.328;8.542;2023-04-20T07:02:00;98475.44;;;3.36;97.21
69971;BME280;57301;50.328;8.542;2023-04-20T07:04:27;98484.06;;;3.51;96.93
69971;BME280;57301;50.328;8.542;2023-04-20T07:06:54;98484.41;;;3.70;97.67
69971;BME280;57301;50.328;8.542;2023-04-20T07:09:20;98482.06;;;3.78;96.16
69971;BME280;57301;50.328;8.542;2023-04-20T07:11:48;98484.69;;;3.78;96.56
69971;BME280;57301;50.328;8.542;2023-04-20T07:14:14;98483.13;;;3.76;97.38
69971;BME280;57301;50.328;8.542;2023-04-20T07:16:41;98485.00;;;3.74;96.61
69971;BME280;57301;50.328;8.542;2023-04-20T07:19:07;98481.59;;;3.85;96.31
69971;BME280;57301;50.328;8.542;2023-04-20T07:21:34;98474.66;;;4.08;96.34
69971;BME280;57301;50.328;8.542;2023-04-20T07:24:01;98474.31;;;4.12;96.63
69971;BME280;57301;50.328;8.542;2023-04-20T07:26:27;98473.50;;;4.23;96.88
69971;BME280;57301;50.328;8.542;2023-04-20T07:28:54;98466.56;;;4.33;95.71
69971;BME280;57301;50.328;8.542;2023-04-20T07:31:20;98464.19;;;4.30;95.60
69971;BME280;57301;50.328;8.542;2023-04-20T07:33:47;98476.69;;;4.39;95.29
69971;BME280;57301;50.328;8.542;2023-04-20T07:36:13;98463.47;;;4.39;95.34
69971;BME280;57301;50.328;8.542;2023-04-20T07:38:40;98468.31;;;4.56;94.54
69971;BME280;57301;50.328;8.542;2023-04-20T07:41:10;98467.19;;;4.37;94.96
69971;BME280;57301;50.328;8.542;2023-04-20T07:43:37;98472.44;;;4.61;94.33
69971;BME280;57301;50.328;8.542;2023-04-20T07:46:04;98475.91;;;4.61;93.59
69971;BME280;57301;50.328;8.542;2023-04-20T07:48:32;98469.31;;;4.67;92.78
69971;BME280;57301;50.328;8.542;2023-04-20T07:50:59;98476.41;;;4.77;93.20
69971;BME280;57301;50.328;8.542;2023-04-20T07:53:27;98478.47;;;4.85;93.19
69971;BME280;57301;50.328;8.542;2023-04-20T07:55:54;98482.91;;;4.73;93.12
69971;BME280;57301;50.328;8.542;2023-04-20T07:58:20;98476.03;;;4.71;92.59
69971;BME280;57301;50.328;8.542;2023-04-20T08:00:47;98483.56;;;4.64;93.50
69971;BME280;57301;50.328;8.542;2023-04-20T08:03:14;98473.03;;;4.75;93.71
69971;BME280;57301;50.328;8.542;2023-04-20T08:05:41;98477.63;;;4.73;93.63
69971;BME280;57301;50.328;8.542;2023-04-20T08:08:07;98479.28;;;4.74;92.83
69971;BME280;57301;50.328;8.542;2023-04-20T08:10:34;98472.16;;;4.52;94.13
69971;BME280;57301;50.328;8.542;2023-04-20T08:13:01;98480.13;;;4.75;93.81
69971;BME280;57301;50.328;8.542;2023-04-20T08:15:27;98478.22;;;4.99;92.79
69971;BME280;57301;50.328;8.542;2023-04-20T08:17:54;98480.50;;;5.26;93.04
69971;BME280;57301;50.328;8.542;2023-04-20T08:20:21;98489.50;;;5.01;93.86
69971;BME280;57301;50.328;8.542;2023-04-20T08:22:47;98480.34;;;4.61;93.56
69971;BME280;57301;50.328;8.542;2023-04-20T08:25:14;98474.84;;;4.75;92.69
69971;BME280;57301;50.328;8.542;2023-04-20T08:27:41;98481.19;;;4.72;92.69
69971;BME280;57301;50.328;8.542;2023-04-20T08:30:07;98475.53;;;4.54;93.07
69971;BME280;57301;50.328;8.542;2023-04-20T08:32:34;98470.13;;;4.56;93.10
69971;BME280;57301;50.328;8.542;2023-04-20T08:35:01;98474.84;;;4.75;93.87
69971;BME280;57301;50.328;8.542;2023-04-20T08:37:27;98482.19;;;4.94;93.86
69971;BME280;57301;50.328;8.542;2023-04-20T08:39:56;98476.28;;;4.90;93.91
69971;BME280;57301;50.328;8.542;2023-04-20T08:42:23;98474.38;;;5.15;92.29
69971;BME280;57301;50.328;8.542;2023-04-20T08:44:49;98474.16;;;5.18;90.35
69971;BME280;57301;50.328;8.542;2023-04-20T08:47:15;98480.88;;;5.10;91.76
69971;BME280;57301;50.328;8.542;2023-04-20T08:49:43;98481.13;;;5.30;91.04
69971;BME280;57301;50.328;8.542;2023-04-20T08:52:10;98478.69;;;5.49;89.30
69971;BME280;57301;50.328;8.542;2023-04-20T08:54:37;98472.88;;;5.78;89.16
69971;BME280;57301;50.328;8.542;2023-04-20T08:57:14;98476.25;;;5.80;86.93
69971;BME280;57301;50.328;8.542;2023-04-20T08:59:41;98466.84;;;5.98;86.13
69971;BME280;57301;50.328;8.542;2023-04-20T09:02:11;98466.44;;;6.14;85.97
69971;BME280;57301;50.328;8.542;2023-04-20T09:04:39;98467.00;;;6.17;85.34
69971;BME280;57301;50.328;8.542;2023-04-20T09:07:16;98470.06;;;6.34;87.98
69971;BME280;57301;50.328;8.542;2023-04-20T09:09:53;98472.75;;;6.23;87.13
69971;BME280;57301;50.328;8.542;2023-04-20T09:12:21;98478.13;;;5.89;86.44
69971;BME280;57301;50.328;8.542;2023-04-20T09:14:48;98462.41;;;5.76;86.20
69971;BME280;57301;50.328;8.542;2023-04-20T09:17:15;98471.28;;;5.86;88.06
69971;BME280;57301;50.328;8.542;2023-04-20T09:19:44;98471.97;;;6.11;86.93
69971;BME280;57301;50.328;8.542;2023-04-20T09:22:11;98466.44;;;6.35;86.58
69971;BME280;57301;50.328;8.542;2023-04-20T09:24:38;98463.97;;;6.22;85.21
69971;BME280;57301;50.328;8.542;2023-04-20T09:27:16;98461.19;;;6.86;84.45
69971;BME280;57301;50.328;8.542;2023-04-20T09:29:55;98462.41;;;7.03;84.37
69971;BME280;57301;50.328;8.542;2023-04-20T09:32:26;98463.41;;;7.12;83.38
69971;BME280;57301;50.328;8.542;2023-04-20T09:34:56;98464.19;;;7.73;81.96
69971;BME280;57301;50.328;8.542;2023-04-20T09:37:22;98453.31;;;7.96;79.90
69971;BME280;57301;50.328;8.542;2023-04-20T09:39:49;98452.69;;;8.99;80.62
69971;BME280;57301;50.328;8.542;2023-04-20T09:42:16;98436.38;;;9.49;75.96
69971;BME280;57301;50.328;8.542;2023-04-20T09:44:43;98438.59;;;10.16;75.78
69971;BME280;57301;50.328;8.542;2023-04-20T09:47:16;98435.25;;;10.14;74.68
69971;BME280;57301;50.328;8.542;2023-04-20T09:49:44;98435.75;;;9.64;74.03
69971;BME280;57301;50.328;8.542;2023-04-20T09:52:18;98438.16;;;9.30;74.33
69971;BME280;57301;50.328;8.542;2023-04-20T09:54:44;98431.41;;;9.36;73.03
69971;BME280;57301;50.328;8.542;2023-04-20T09:57:12;98430.19;;;9.76;72.69
69971;BME280;57301;50.328;8.542;2023-04-20T09:59:44;98421.16;;;10.04;72.38
69971;BME280;57301;50.328;8.542;2023-04-20T10:02:12;98425.09;;;9.64;71.66
69971;BME280;57301;50.328;8.542;2023-04-20T10:04:58;98421.53;;;9.91;70.09
69971;BME280;57301;50.328;8.542;2023-04-20T10:07:26;98428.94;;;9.52;71.10
69971;BME280;57301;50.328;8.542;2023-04-20T10:10:08;98420.22;;;9.78;71.14
69971;BME280;57301;50.328;8.542;2023-04-20T10:12:47;98420.16;;;10.05;68.95
69971;BME280;57301;50.328;8.542;2023-04-20T10:15:14;98411.66;;;9.56;68.68
69971;BME280;57301;50.328;8.542;2023-04-20T10:17:41;98409.50;;;9.87;68.67
69971;BME280;57301;50.328;8.542;2023-04-20T10:20:28;98397.09;;;10.14;67.56
69971;BME280;57301;50.328;8.542;2023-04-20T10:23:07;98393.03;;;10.63;68.52
69971;BME280;57301;50.328;8.542;2023-04-20T10:25:34;98391.56;;;10.69;65.96
69971;BME280;57301;50.328;8.542;2023-04-20T10:28:03;98390.75;;;11.02;65.31
69971;BME280;57301;50.328;8.542;2023-04-20T10:30:33;98393.72;;;11.34;64.42
69971;BME280;57301;50.328;8.542;2023-04-20T10:33:10;98388.53;;;11.32;62.17
69971;BME280;57301;50.328;8.542;2023-04-20T10:35:49;98383.00;;;11.17;62.66
69971;BME280;57301;50.328;8.542;2023-04-20T10:38:32;98380.41;;;12.25;59.24
69971;BME280;57301;50.328;8.542;2023-04-20T10:43:32;98373.72;;;10.43;62.45
69971;BME280;57301;50.328;8.542;2023-04-20T10:46:00;98372.19;;;10.67;62.17
69971;BME280;57301;50.328;8.542;2023-04-20T10:48:27;98361.91;;;10.72;62.31
69971;BME280;57301;50.328;8.542;2023-04-20T10:50:53;98358.25;;;11.57;60.10
69971;BME280;57301;50.328;8.542;2023-04-20T10:53:21;98365.28;;;11.16;58.32
69971;BME280;57301;50.328;8.542;2023-04-20T10:56:00;98367.84;;;10.66;62.22
69971;BME280;57301;50.328;8.542;2023-04-20T10:58:27;98361.59;;;11.09;62.22
69971;BME280;57301;50.328;8.542;2023-04-20T11:01:00;98360.34;;;11.88;59.04
69971;BME280;57301;50.328;8.542;2023-04-20T11:03:28;98355.63;;;12.63;57.76
69971;BME280;57301;50.328;8.542;2023-04-20T11:05:56;98354.69;;;12.24;58.36
69971;BME280;57301;50.328;8.542;2023-04-20T11:08:39;98356.72;;;11.04;61.35
69971;BME280;57301;50.328;8.542;2023-04-20T11:11:19;98349.88;;;11.44;61.17
69971;BME280;57301;50.328;8.542;2023-04-20T11:13:47;98350.06;;;10.48;62.48
69971;BME280;57301;50.328;8.542;2023-04-20T11:16:15;98345.94;;;10.10;62.01
69971;BME280;57301;50.328;8.542;2023-04-20T11:18:48;98343.44;;;10.09;63.32
69971;BME280;57301;50.328;8.542;2023-04-20T11:21:15;98338.84;;;10.37;61.59
69971;BME280;57301;50.328;8.542;2023-04-20T11:23:42;98336.66;;;10.58;62.28
69971;BME280;57301;50.328;8.542;2023-04-20T11:26:10;98334.72;;;11.11;59.18
69971;BME280;57301;50.328;8.542;2023-04-20T11:28:37;98337.69;;;11.42;58.27
69971;BME280;57301;50.328;8.542;2023-04-20T11:31:03;98349.94;;;10.50;59.76
69971;BME280;57301;50.328;8.542;2023-04-20T11:33:31;98349.97;;;9.43;65.40
69971;BME280;57301;50.328;8.542;2023-04-20T11:35:59;98349.97;;;8.98;70.68
69971;BME280;57301;50.328;8.542;2023-04-20T11:38:32;98344.09;;;8.94;73.17
69971;BME280;57301;50.328;8.542;2023-04-20T11:40:59;98339.13;;;9.09;73.07
69971;BME280;57301;50.328;8.542;2023-04-20T11:43:30;98342.88;;;9.16;72.66
69971;BME280;57301;50.328;8.542;2023-04-20T11:45:58;98338.66;;;9.13;72.12
69971;BME280;57301;50.328;8.542;2023-04-20T11:48:25;98345.41;;;9.35;72.97
69971;BME280;57301;50.328;8.542;2023-04-20T11:50:52;98341.00;;;9.62;71.76
69971;BME280;57301;50.328;8.542;2023-04-20T11:53:19;98329.25;;;9.82;71.99
69971;BME280;57301;50.328;8.542;2023-04-20T11:55:46;98336.41;;;9.64;72.01
69971;BME280;57301;50.328;8.542;2023-04-20T11:58:12;98318.47;;;9.38;71.22
69971;BME280;57301;50.328;8.542;2023-04-20T12:00:39;98323.53;;;9.77;71.70
69971;BME280;57301;50.328;8.542;2023-04-20T12:03:05;98319.75;;;10.06;71.59
69971;BME280;57301;50.328;8.542;2023-04-20T12:05:32;98314.16;;;9.91;70.92
69971;BME280;57301;50.328;8.542;2023-04-20T12:07:59;98321.97;;;10.10;69.81
69971;BME280;57301;50.328;8.542;2023-04-20T12:10:25;98310.78;;;10.51;67.50
69971;BME280;57301;50.328;8.542;2023-04-20T12:12:52;98318.47;;;10.88;67.76
69971;BME280;57301;50.328;8.542;2023-04-20T12:15:19;98310.38;;;11.72;66.38
69971;BME280;57301;50.328;8.542;2023-04-20T12:17:45;98302.47;;;10.54;66.80
69971;BME280;57301;50.328;8.542;2023-04-20T12:20:12;98306.22;;;10.43;67.09
69971;BME280;57301;50.328;8.542;2023-04-20T12:22:39;98308.44;;;10.04;66.56
69971;BME280;57301;50.328;8.542;2023-04-20T12:25:06;98308.16;;;9.89;67.06
69971;BME280;57301;50.328;8.542;2023-04-20T12:27:32;98300.91;;;9.81;65.20
69971;BME280;57301;50.328;8.542;2023-04-20T12:29:59;98297.13;;;11.30;63.19
69971;BME280;57301;50.328;8.542;2023-04-20T12:32:26;98284.03;;;11.94;59.93
69971;BME280;57301;50.328;8.542;2023-04-20T12:34:52;98283.94;;;12.59;60.61
69971;BME280;57301;50.328;8.542;2023-04-20T12:37:19;98282.78;;;12.45;55.38
69971;BME280;57301;50.328;8.542;2023-04-20T12:39:46;98278.38;;;12.69;54.33
69971;BME280;57301;50.328;8.542;2023-04-20T12:42:12;98284.94;;;12.97;53.58
69971;BME280;57301;50.328;8.542;2023-04-20T12:44:39;98275.78;;;12.91;52.84
69971;BME280;57301;50.328;8.542;2023-04-20T12:47:05;98273.59;;;12.40;55.75
69971;BME280;57301;50.328;8.542;2023-04-20T12:49:32;98269.97;;;12.08;54.07
69971;BME280;57301;50.328;8.542;2023-04-20T12:51:59;98270.97;;;11.66;55.48
69971;BME280;57301;50.328;8.542;2023-04-20T12:54:25;98273.97;;;11.55;55.76
69971;BME280;57301;50.328;8.542;2023-04-20T12:56:52;98271.25;;;11.30;56.61
69971;BME280;57301;50.328;8.542;2023-04-20T12:59:18;98267.59;;;11.32;57.49
69971;BME280;57301;50.328;8.542;2023-04-20T13:01:45;98266.78;;;11.64;57.41
69971;BME280;57301;50.328;8.542;2023-04-20T13:04:11;98263.34;;;14.36;51.97
69971;BME280;57301;50.328;8.542;2023-04-20T13:06:42;98269.78;;;16.37;47.31
69971;BME280;57301;50.328;8.542;2023-04-20T13:09:08;98268.13;;;16.36;45.50
69971;BME280;57301;50.328;8.542;2023-04-20T13:11:35;98259.41;;;15.42;47.48
69971;BME280;57301;50.328;8.542;2023-04-20T13:14:01;98260.94;;;14.41;48.00